sensor_id;sensor_type;location;lat;lon;timestamp;P1;durP1;ratioP1;P2;durP2;ratioP2
920;SDS011;447;51.332;6.778;2023-02-20T00:00:40;2.17;;;1.80;;
920;SDS011;447;51.332;6.778;2023-02-20T00:03:09;2.40;;;2.03;;
920;SDS011;447;51.332;6.778;2023-02-20T00:05:40;2.77;;;2.10;;
920;SDS011;447;51.332;6.778;2023-02-20T00:08:09;5.43;;;2.40;;
920;SDS011;447;51.332;6.778;2023-02-20T00:10:37;2.97;;;2.67;;
920;SDS011;447;51.332;6.778;2023-02-20T00:13:03;2.70;;;2.23;;
920;SDS011;447;51.332;6.778;2023-02-20T00:15:31;2.53;;;2.33;;
920;SDS011;447;51.332;6.778;2023-02-20T00:17:57;3.97;;;2.93;;
920;SDS011;447;51.332;6.778;2023-02-20T00:20:26;3.70;;;2.70;;
920;SDS011;447;51.332;6.778;2023-02-20T00:22:54;3.20;;;2.50;;
920;SDS011;447;51.332;6.778;2023-02-20T00:25:23;5.80;;;2.93;;
920;SDS011;447;51.332;6.778;2023-02-20T00:27:51;4.50;;;2.90;;
920;SDS011;447;51.332;6.778;2023-02-20T00:30:19;5.23;;;3.23;;
920;SDS011;447;51.332;6.778;2023-02-20T00:32:49;4.30;;;2.83;;
920;SDS011;447;51.332;6.778;2023-02-20T00:35:19;6.27;;;3.10;;
920;SDS011;447;51.332;6.778;2023-02-20T00:37:47;5.07;;;3.40;;
920;SDS011;447;51.332;6.778;2023-02-20T00:40:13;6.07;;;3.70;;
920;SDS011;447;51.332;6.778;2023-02-20T00:42:41;5.10;;;2.87;;
920;SDS011;447;51.332;6.778;2023-02-20T00:45:07;4.00;;;3.37;;
920;SDS011;447;51.332;6.778;2023-02-20T00:47:35;4.40;;;3.43;;
920;SDS011;447;51.332;6.778;2023-02-20T00:50:04;4.27;;;3.20;;
920;SDS011;447;51.332;6.778;2023-02-20T00:52:36;5.13;;;3.53;;
920;SDS011;447;51.332;6.778;2023-02-20T00:55:07;5.10;;;3.30;;
920;SDS011;447;51.332;6.778;2023-02-20T00:57:34;5.43;;;3.70;;
920;SDS011;447;51.332;6.778;2023-02-20T01:00:06;5.63;;;3.60;;
920;SDS011;447;51.332;6.778;2023-02-20T01:02:37;5.53;;;3.80;;
920;SDS011;447;51.332;6.778;2023-02-20T01:05:05;5.80;;;4.20;;
920;SDS011;447;51.332;6.778;2023-02-20T01:07:32;5.60;;;4.40;;
920;SDS011;447;51.332;6.778;2023-02-20T01:09:58;6.17;;;4.13;;
920;SDS011;447;51.332;6.778;2023-02-20T01:12:23;5.43;;;4.30;;
920;SDS011;447;51.332;6.778;2023-02-20T01:14:52;8.63;;;5.23;;
920;SDS011;447;51.332;6.778;2023-02-20T01:17:20;7.03;;;5.00;;
920;SDS011;447;51.332;6.778;2023-02-20T01:19:49;6.90;;;4.47;;
920;SDS011;447;51.332;6.778;2023-02-20T01:22:19;5.53;;;4.30;;
920;SDS011;447;51.332;6.778;2023-02-20T01:24:50;8.20;;;5.07;;
920;SDS011;447;51.332;6.778;2023-02-20T01:27:18;8.07;;;4.70;;
920;SDS011;447;51.332;6.778;2023-02-20T01:29:47;6.40;;;4.93;;
920;SDS011;447;51.332;6.778;2023-02-20T01:32:13;5.77;;;4.80;;
920;SDS011;447;51.332;6.778;2023-02-20T01:34:42;7.50;;;4.37;;
920;SDS011;447;51.332;6.778;2023-02-20T01:37:13;8.90;;;6.07;;
920;SDS011;447;51.332;6.778;2023-02-20T01:39:39;6.50;;;5.47;;
920;SDS011;447;51.332;6.778;2023-02-20T01:42:06;7.70;;;5.67;;
920;SDS011;447;51.332;6.778;2023-02-20T01:44:38;10.03;;;6.07;;
920;SDS011;447;51.332;6.778;2023-02-20T01:47:07;10.23;;;6.73;;
920;SDS011;447;51.332;6.778;2023-02-20T01:52:05;7.77;;;5.10;;
920;SDS011;447;51.332;6.778;2023-02-20T01:54:58;9.20;;;5.33;;
920;SDS011;447;51.332;6.778;2023-02-20T01:57:31;8.13;;;5.40;;
920;SDS011;447;51.332;6.778;2023-02-20T02:00:04;13.40;;;5.67;;
920;SDS011;447;51.332;6.778;2023-02-20T02:02:41;6.87;;;5.20;;
920;SDS011;447;51.332;6.778;2023-02-20T02:05:09;8.73;;;5.83;;
920;SDS011;447;51.332;6.778;2023-02-20T02:07:36;8.20;;;5.60;;
920;SDS011;447;51.332;6.778;2023-02-20T02:10:08;7.60;;;5.50;;
920;SDS011;447;51.332;6.778;2023-02-20T02:12:37;8.80;;;5.60;;
920;SDS011;447;51.332;6.778;2023-02-20T02:15:19;8.53;;;6.10;;
920;SDS011;447;51.332;6.778;2023-02-20T02:26:31;8.43;;;5.80;;
920;SDS011;447;51.332;6.778;2023-02-20T02:32:24;9.10;;;6.00;;
920;SDS011;447;51.332;6.778;2023-02-20T02:40:52;12.00;;;6.93;;
920;SDS011;447;51.332;6.778;2023-02-20T02:43:47;10.20;;;6.47;;
920;SDS011;447;51.332;6.778;2023-02-20T02:46:31;10.90;;;6.80;;
920;SDS011;447;51.332;6.778;2023-02-20T02:51:31;8.53;;;6.63;;
920;SDS011;447;51.332;6.778;2023-02-20T02:56:38;11.53;;;7.63;;
920;SDS011;447;51.332;6.778;2023-02-20T02:59:10;11.23;;;7.37;;
920;SDS011;447;51.332;6.778;2023-02-20T03:01:40;9.90;;;6.90;;
920;SDS011;447;51.332;6.778;2023-02-20T03:04:11;11.13;;;7.33;;
920;SDS011;447;51.332;6.778;2023-02-20T03:06:48;10.40;;;7.40;;
920;SDS011;447;51.332;6.778;2023-02-20T03:09:25;11.33;;;7.33;;
920;SDS011;447;51.332;6.778;2023-02-20T03:11:53;11.17;;;7.20;;
920;SDS011;447;51.332;6.778;2023-02-20T03:14:31;10.20;;;6.63;;
920;SDS011;447;51.332;6.778;2023-02-20T03:20:07;8.67;;;7.00;;
920;SDS011;447;51.332;6.778;2023-02-20T03:22:44;10.93;;;7.80;;
920;SDS011;447;51.332;6.778;2023-02-20T03:36:22;9.80;;;7.27;;
920;SDS011;447;51.332;6.778;2023-02-20T03:39:11;10.97;;;7.13;;
920;SDS011;447;51.332;6.778;2023-02-20T03:42:06;10.87;;;6.90;;
920;SDS011;447;51.332;6.778;2023-02-20T03:45:04;10.80;;;7.47;;
920;SDS011;447;51.332;6.778;2023-02-20T03:47:38;9.30;;;6.80;;
920;SDS011;447;51.332;6.778;2023-02-20T03:50:09;10.13;;;7.43;;
920;SDS011;447;51.332;6.778;2023-02-20T03:52:42;8.93;;;6.50;;
920;SDS011;447;51.332;6.778;2023-02-20T03:55:14;12.80;;;8.07;;
920;SDS011;447;51.332;6.778;2023-02-20T03:57:43;10.83;;;7.83;;
920;SDS011;447;51.332;6.778;2023-02-20T04:00:16;8.03;;;6.33;;
920;SDS011;447;51.332;6.778;2023-02-20T04:02:56;9.73;;;6.30;;
920;SDS011;447;51.332;6.778;2023-02-20T04:05:34;10.47;;;6.40;;
920;SDS011;447;51.332;6.778;2023-02-20T04:08:11;13.13;;;7.37;;
920;SDS011;447;51.332;6.778;2023-02-20T04:10:44;7.27;;;5.90;;
920;SDS011;447;51.332;6.778;2023-02-20T04:13:29;10.40;;;6.50;;
920;SDS011;447;51.332;6.778;2023-02-20T04:15:57;10.07;;;6.90;;
920;SDS011;447;51.332;6.778;2023-02-20T04:18:25;11.67;;;7.40;;
920;SDS011;447;51.332;6.778;2023-02-20T04:20:54;11.47;;;7.80;;
920;SDS011;447;51.332;6.778;2023-02-20T04:23:29;10.57;;;7.20;;
920;SDS011;447;51.332;6.778;2023-02-20T04:26:06;11.07;;;5.80;;
920;SDS011;447;51.332;6.778;2023-02-20T04:28:47;10.40;;;5.83;;
920;SDS011;447;51.332;6.778;2023-02-20T04:31:16;10.07;;;6.63;;
920;SDS011;447;51.332;6.778;2023-02-20T04:33:46;11.70;;;7.60;;
920;SDS011;447;51.332;6.778;2023-02-20T04:36:19;10.03;;;6.50;;
920;SDS011;447;51.332;6.778;2023-02-20T04:38:46;10.37;;;6.67;;
920;SDS011;447;51.332;6.778;2023-02-20T04:41:16;9.50;;;6.30;;
920;SDS011;447;51.332;6.778;2023-02-20T04:43:48;8.70;;;6.07;;
920;SDS011;447;51.332;6.778;2023-02-20T04:46:14;10.10;;;5.97;;
920;SDS011;447;51.332;6.778;2023-02-20T04:48:43;7.63;;;5.50;;
920;SDS011;447;51.332;6.778;2023-02-20T04:51:09;11.20;;;6.33;;
920;SDS011;447;51.332;6.778;2023-02-20T04:53:35;9.10;;;5.53;;
920;SDS011;447;51.332;6.778;2023-02-20T04:56:04;8.80;;;5.47;;
920;SDS011;447;51.332;6.778;2023-02-20T04:58:32;9.70;;;5.47;;
920;SDS011;447;51.332;6.778;2023-02-20T05:01:08;7.80;;;5.20;;
920;SDS011;447;51.332;6.778;2023-02-20T05:03:36;8.10;;;5.83;;
920;SDS011;447;51.332;6.778;2023-02-20T05:06:04;9.67;;;5.27;;
920;SDS011;447;51.332;6.778;2023-02-20T05:08:35;8.00;;;6.37;;
920;SDS011;447;51.332;6.778;2023-02-20T05:11:03;8.23;;;6.00;;
920;SDS011;447;51.332;6.778;2023-02-20T05:13:29;9.47;;;4.93;;
920;SDS011;447;51.332;6.778;2023-02-20T05:15:58;9.23;;;4.97;;
920;SDS011;447;51.332;6.778;2023-02-20T05:18:24;8.47;;;5.10;;
920;SDS011;447;51.332;6.778;2023-02-20T05:20:53;8.43;;;4.60;;
920;SDS011;447;51.332;6.778;2023-02-20T05:23:38;8.13;;;5.17;;
920;SDS011;447;51.332;6.778;2023-02-20T05:26:16;6.80;;;4.77;;
920;SDS011;447;51.332;6.778;2023-02-20T05:28:47;8.80;;;4.87;;
920;SDS011;447;51.332;6.778;2023-02-20T05:31:13;7.47;;;5.00;;
920;SDS011;447;51.332;6.778;2023-02-20T05:33:38;6.67;;;4.37;;
920;SDS011;447;51.332;6.778;2023-02-20T05:36:07;8.13;;;5.13;;
920;SDS011;447;51.332;6.778;2023-02-20T05:38:35;10.00;;;4.83;;
920;SDS011;447;51.332;6.778;2023-02-20T05:41:01;6.50;;;4.43;;
920;SDS011;447;51.332;6.778;2023-02-20T05:43:27;7.17;;;4.90;;
920;SDS011;447;51.332;6.778;2023-02-20T05:45:53;7.03;;;4.63;;
920;SDS011;447;51.332;6.778;2023-02-20T05:48:19;8.23;;;4.47;;
920;SDS011;447;51.332;6.778;2023-02-20T05:50:48;10.20;;;4.73;;
920;SDS011;447;51.332;6.778;2023-02-20T05:53:20;8.00;;;4.80;;
920;SDS011;447;51.332;6.778;2023-02-20T05:55:45;9.87;;;4.60;;
920;SDS011;447;51.332;6.778;2023-02-20T05:58:12;7.80;;;5.10;;
920;SDS011;447;51.332;6.778;2023-02-20T06:00:40;8.90;;;4.37;;
920;SDS011;447;51.332;6.778;2023-02-20T06:03:06;7.97;;;4.73;;
920;SDS011;447;51.332;6.778;2023-02-20T06:05:34;6.60;;;4.30;;
920;SDS011;447;51.332;6.778;2023-02-20T06:08:00;10.57;;;4.57;;
920;SDS011;447;51.332;6.778;2023-02-20T06:10:27;7.93;;;4.73;;
920;SDS011;447;51.332;6.778;2023-02-20T06:12:53;6.50;;;3.97;;
920;SDS011;447;51.332;6.778;2023-02-20T06:15:21;8.43;;;4.63;;
920;SDS011;447;51.332;6.778;2023-02-20T06:17:52;13.43;;;5.50;;
920;SDS011;447;51.332;6.778;2023-02-20T06:20:21;8.23;;;5.10;;
920;SDS011;447;51.332;6.778;2023-02-20T06:22:47;8.27;;;5.33;;
920;SDS011;447;51.332;6.778;2023-02-20T06:25:18;6.43;;;5.33;;
920;SDS011;447;51.332;6.778;2023-02-20T06:27:46;11.40;;;6.27;;
920;SDS011;447;51.332;6.778;2023-02-20T06:30:15;7.40;;;5.40;;
920;SDS011;447;51.332;6.778;2023-02-20T06:32:46;8.00;;;5.67;;
920;SDS011;447;51.332;6.778;2023-02-20T06:35:17;11.03;;;6.50;;
920;SDS011;447;51.332;6.778;2023-02-20T06:37:45;12.30;;;5.90;;
920;SDS011;447;51.332;6.778;2023-02-20T06:40:14;9.27;;;6.50;;
920;SDS011;447;51.332;6.778;2023-02-20T06:42:47;11.87;;;6.60;;
920;SDS011;447;51.332;6.778;2023-02-20T06:45:13;10.07;;;7.30;;
920;SDS011;447;51.332;6.778;2023-02-20T06:47:42;13.00;;;6.93;;
920;SDS011;447;51.332;6.778;2023-02-20T06:50:08;13.50;;;7.00;;
920;SDS011;447;51.332;6.778;2023-02-20T06:52:36;10.97;;;7.03;;
920;SDS011;447;51.332;6.778;2023-02-20T06:55:02;8.73;;;6.37;;
920;SDS011;447;51.332;6.778;2023-02-20T06:57:30;15.13;;;7.87;;
920;SDS011;447;51.332;6.778;2023-02-20T06:59:58;13.10;;;7.93;;
920;SDS011;447;51.332;6.778;2023-02-20T07:02:27;17.30;;;8.07;;
920;SDS011;447;51.332;6.778;2023-02-20T07:04:55;12.73;;;7.30;;
920;SDS011;447;51.332;6.778;2023-02-20T07:07:24;16.50;;;8.03;;
920;SDS011;447;51.332;6.778;2023-02-20T07:09:50;12.87;;;8.50;;
920;SDS011;447;51.332;6.778;2023-02-20T07:12:15;11.87;;;8.77;;
920;SDS011;447;51.332;6.778;2023-02-20T07:14:42;13.43;;;9.00;;
920;SDS011;447;51.332;6.778;2023-02-20T07:17:10;13.97;;;8.13;;
920;SDS011;447;51.332;6.778;2023-02-20T07:19:38;12.40;;;8.80;;
920;SDS011;447;51.332;6.778;2023-02-20T07:22:04;16.30;;;9.00;;
920;SDS011;447;51.332;6.778;2023-02-20T07:24:30;14.20;;;8.33;;
920;SDS011;447;51.332;6.778;2023-02-20T07:26:56;15.40;;;10.23;;
920;SDS011;447;51.332;6.778;2023-02-20T07:29:24;13.43;;;9.30;;
920;SDS011;447;51.332;6.778;2023-02-20T07:31:52;10.60;;;9.03;;
920;SDS011;447;51.332;6.778;2023-02-20T07:34:20;18.40;;;9.20;;
920;SDS011;447;51.332;6.778;2023-02-20T07:36:46;14.40;;;9.10;;
920;SDS011;447;51.332;6.778;2023-02-20T07:39:15;17.47;;;8.60;;
920;SDS011;447;51.332;6.778;2023-02-20T07:41:43;12.03;;;9.20;;
920;SDS011;447;51.332;6.778;2023-02-20T07:44:35;15.47;;;9.53;;
920;SDS011;447;51.332;6.778;2023-02-20T07:47:01;17.30;;;10.33;;
920;SDS011;447;51.332;6.778;2023-02-20T07:49:28;16.47;;;10.70;;
920;SDS011;447;51.332;6.778;2023-02-20T07:51:56;12.60;;;9.60;;
920;SDS011;447;51.332;6.778;2023-02-20T07:54:27;12.17;;;9.20;;
920;SDS011;447;51.332;6.778;2023-02-20T07:56:57;13.70;;;9.30;;
920;SDS011;447;51.332;6.778;2023-02-20T07:59:26;15.37;;;10.00;;
920;SDS011;447;51.332;6.778;2023-02-20T08:01:52;15.57;;;10.90;;
920;SDS011;447;51.332;6.778;2023-02-20T08:04:18;16.50;;;9.03;;
920;SDS011;447;51.332;6.778;2023-02-20T08:06:44;16.57;;;9.03;;
920;SDS011;447;51.332;6.778;2023-02-20T08:09:12;13.80;;;9.60;;
920;SDS011;447;51.332;6.778;2023-02-20T08:11:40;15.50;;;10.50;;
920;SDS011;447;51.332;6.778;2023-02-20T08:14:07;15.70;;;10.20;;
920;SDS011;447;51.332;6.778;2023-02-20T08:16:38;13.93;;;8.93;;
920;SDS011;447;51.332;6.778;2023-02-20T08:19:06;17.00;;;9.23;;
920;SDS011;447;51.332;6.778;2023-02-20T08:21:32;14.27;;;10.57;;
920;SDS011;447;51.332;6.778;2023-02-20T08:24:03;15.17;;;9.17;;
920;SDS011;447;51.332;6.778;2023-02-20T08:26:32;14.93;;;10.33;;
920;SDS011;447;51.332;6.778;2023-02-20T08:28:59;14.97;;;10.03;;
920;SDS011;447;51.332;6.778;2023-02-20T08:31:28;15.90;;;10.43;;
920;SDS011;447;51.332;6.778;2023-02-20T08:33:54;16.67;;;10.47;;
920;SDS011;447;51.332;6.778;2023-02-20T08:36:20;16.43;;;9.93;;
920;SDS011;447;51.332;6.778;2023-02-20T08:38:48;12.37;;;8.90;;
920;SDS011;447;51.332;6.778;2023-02-20T08:41:14;15.17;;;9.70;;
920;SDS011;447;51.332;6.778;2023-02-20T08:43:42;15.07;;;9.77;;
920;SDS011;447;51.332;6.778;2023-02-20T08:46:08;16.37;;;9.73;;
920;SDS011;447;51.332;6.778;2023-02-20T08:48:49;13.17;;;9.20;;
920;SDS011;447;51.332;6.778;2023-02-20T08:51:17;15.17;;;9.37;;
920;SDS011;447;51.332;6.778;2023-02-20T08:53:44;13.10;;;9.03;;
920;SDS011;447;51.332;6.778;2023-02-20T08:56:19;12.00;;;8.13;;
920;SDS011;447;51.332;6.778;2023-02-20T08:58:46;10.80;;;8.00;;
920;SDS011;447;51.332;6.778;2023-02-20T09:01:12;13.70;;;9.40;;
920;SDS011;447;51.332;6.778;2023-02-20T09:03:40;15.10;;;9.00;;
920;SDS011;447;51.332;6.778;2023-02-20T09:06:07;15.73;;;8.87;;
920;SDS011;447;51.332;6.778;2023-02-20T09:08:34;15.87;;;10.90;;
920;SDS011;447;51.332;6.778;2023-02-20T09:11:02;15.07;;;9.40;;
920;SDS011;447;51.332;6.778;2023-02-20T09:13:28;15.17;;;8.33;;
920;SDS011;447;51.332;6.778;2023-02-20T09:15:55;15.10;;;9.30;;
920;SDS011;447;51.332;6.778;2023-02-20T09:18:20;13.30;;;8.67;;
920;SDS011;447;51.332;6.778;2023-02-20T09:20:49;16.47;;;8.57;;
920;SDS011;447;51.332;6.778;2023-02-20T09:23:17;16.80;;;8.67;;
920;SDS011;447;51.332;6.778;2023-02-20T09:25:48;15.87;;;9.10;;
920;SDS011;447;51.332;6.778;2023-02-20T09:28:17;17.20;;;9.90;;
920;SDS011;447;51.332;6.778;2023-02-20T09:30:43;14.87;;;9.10;;
920;SDS011;447;51.332;6.778;2023-02-20T09:33:12;17.63;;;9.60;;
920;SDS011;447;51.332;6.778;2023-02-20T09:35:38;12.80;;;8.03;;
920;SDS011;447;51.332;6.778;2023-02-20T09:38:05;16.40;;;8.87;;
920;SDS011;447;51.332;6.778;2023-02-20T09:40:36;13.10;;;8.83;;
920;SDS011;447;51.332;6.778;2023-02-20T09:51:27;15.50;;;9.87;;
920;SDS011;447;51.332;6.778;2023-02-20T09:54:07;20.03;;;9.70;;
920;SDS011;447;51.332;6.778;2023-02-20T09:56:37;10.73;;;8.60;;
920;SDS011;447;51.332;6.778;2023-02-20T09:59:17;19.50;;;11.07;;
920;SDS011;447;51.332;6.778;2023-02-20T10:01:53;16.50;;;8.70;;
920;SDS011;447;51.332;6.778;2023-02-20T10:04:25;13.70;;;8.97;;
920;SDS011;447;51.332;6.778;2023-02-20T10:06:59;16.37;;;9.10;;
920;SDS011;447;51.332;6.778;2023-02-20T10:09:33;14.93;;;8.97;;
920;SDS011;447;51.332;6.778;2023-02-20T10:12:21;14.40;;;9.10;;
920;SDS011;447;51.332;6.778;2023-02-20T10:15:31;13.43;;;9.60;;
920;SDS011;447;51.332;6.778;2023-02-20T10:24:21;14.80;;;9.43;;
920;SDS011;447;51.332;6.778;2023-02-20T10:27:00;13.33;;;9.60;;
920;SDS011;447;51.332;6.778;2023-02-20T10:29:36;13.27;;;8.97;;
920;SDS011;447;51.332;6.778;2023-02-20T10:32:08;18.63;;;9.07;;
920;SDS011;447;51.332;6.778;2023-02-20T10:37:41;13.70;;;9.10;;
920;SDS011;447;51.332;6.778;2023-02-20T10:48:21;15.00;;;9.03;;
920;SDS011;447;51.332;6.778;2023-02-20T10:56:37;14.80;;;9.10;;
920;SDS011;447;51.332;6.778;2023-02-20T10:59:27;16.30;;;10.13;;
920;SDS011;447;51.332;6.778;2023-02-20T11:02:04;15.17;;;8.77;;
920;SDS011;447;51.332;6.778;2023-02-20T11:04:36;18.70;;;8.80;;
920;SDS011;447;51.332;6.778;2023-02-20T11:09:40;16.03;;;9.90;;
920;SDS011;447;51.332;6.778;2023-02-20T11:12:06;17.87;;;8.70;;
920;SDS011;447;51.332;6.778;2023-02-20T11:14:43;17.60;;;10.43;;
920;SDS011;447;51.332;6.778;2023-02-20T11:17:14;15.03;;;8.50;;
920;SDS011;447;51.332;6.778;2023-02-20T11:19:44;13.07;;;9.30;;
920;SDS011;447;51.332;6.778;2023-02-20T11:22:12;13.93;;;8.93;;
920;SDS011;447;51.332;6.778;2023-02-20T11:24:44;12.23;;;9.40;;
920;SDS011;447;51.332;6.778;2023-02-20T11:27:20;13.53;;;9.47;;
920;SDS011;447;51.332;6.778;2023-02-20T11:29:59;14.50;;;8.13;;
920;SDS011;447;51.332;6.778;2023-02-20T11:32:37;15.87;;;10.10;;
920;SDS011;447;51.332;6.778;2023-02-20T11:37:43;18.83;;;8.83;;
920;SDS011;447;51.332;6.778;2023-02-20T11:40:44;13.80;;;9.90;;
920;SDS011;447;51.332;6.778;2023-02-20T11:45:38;17.20;;;9.33;;
920;SDS011;447;51.332;6.778;2023-02-20T11:48:05;16.57;;;10.27;;
920;SDS011;447;51.332;6.778;2023-02-20T11:50:37;15.50;;;9.63;;
920;SDS011;447;51.332;6.778;2023-02-20T11:53:06;15.43;;;10.67;;
920;SDS011;447;51.332;6.778;2023-02-20T11:55:41;13.27;;;9.30;;
920;SDS011;447;51.332;6.778;2023-02-20T11:58:19;16.33;;;10.10;;
920;SDS011;447;51.332;6.778;2023-02-20T12:00:50;13.63;;;9.20;;
920;SDS011;447;51.332;6.778;2023-02-20T12:03:26;11.50;;;8.20;;
920;SDS011;447;51.332;6.778;2023-02-20T12:05:54;14.10;;;9.03;;
920;SDS011;447;51.332;6.778;2023-02-20T12:08:46;15.13;;;9.30;;
920;SDS011;447;51.332;6.778;2023-02-20T12:11:19;17.27;;;9.13;;
920;SDS011;447;51.332;6.778;2023-02-20T12:13:49;13.03;;;9.30;;
920;SDS011;447;51.332;6.778;2023-02-20T12:16:21;14.60;;;8.90;;
920;SDS011;447;51.332;6.778;2023-02-20T12:26:58;16.87;;;10.97;;
920;SDS011;447;51.332;6.778;2023-02-20T12:45:39;17.53;;;9.90;;
920;SDS011;447;51.332;6.778;2023-02-20T12:48:21;16.27;;;10.50;;
920;SDS011;447;51.332;6.778;2023-02-20T13:01:11;16.67;;;10.10;;
920;SDS011;447;51.332;6.778;2023-02-20T13:09:20;17.37;;;9.77;;
920;SDS011;447;51.332;6.778;2023-02-20T13:11:55;16.80;;;10.80;;
920;SDS011;447;51.332;6.778;2023-02-20T13:20:31;15.87;;;9.30;;
920;SDS011;447;51.332;6.778;2023-02-20T13:25:45;14.13;;;10.27;;
920;SDS011;447;51.332;6.778;2023-02-20T13:28:26;12.40;;;9.00;;
920;SDS011;447;51.332;6.778;2023-02-20T13:33:37;16.17;;;9.53;;
920;SDS011;447;51.332;6.778;2023-02-20T13:36:17;16.83;;;10.47;;
920;SDS011;447;51.332;6.778;2023-02-20T13:41:59;19.60;;;10.23;;
920;SDS011;447;51.332;6.778;2023-02-20T13:44:32;14.43;;;9.33;;
920;SDS011;447;51.332;6.778;2023-02-20T13:57:45;14.17;;;9.70;;
920;SDS011;447;51.332;6.778;2023-02-20T14:03:12;13.80;;;9.50;;
920;SDS011;447;51.332;6.778;2023-02-20T14:06:07;14.10;;;8.73;;
920;SDS011;447;51.332;6.778;2023-02-20T14:08:36;15.77;;;9.83;;
920;SDS011;447;51.332;6.778;2023-02-20T14:11:11;13.37;;;9.40;;
920;SDS011;447;51.332;6.778;2023-02-20T14:13:56;15.87;;;9.00;;
920;SDS011;447;51.332;6.778;2023-02-20T14:19:14;13.00;;;9.87;;
920;SDS011;447;51.332;6.778;2023-02-20T14:21:52;15.77;;;9.67;;
920;SDS011;447;51.332;6.778;2023-02-20T14:24:26;13.60;;;8.93;;
920;SDS011;447;51.332;6.778;2023-02-20T14:26:53;15.43;;;10.07;;
920;SDS011;447;51.332;6.778;2023-02-20T14:31:50;15.40;;;9.17;;
920;SDS011;447;51.332;6.778;2023-02-20T14:34:20;15.47;;;10.30;;
920;SDS011;447;51.332;6.778;2023-02-20T14:37:09;15.90;;;9.73;;
920;SDS011;447;51.332;6.778;2023-02-20T14:39:51;18.33;;;11.00;;
920;SDS011;447;51.332;6.778;2023-02-20T14:42:42;13.93;;;9.13;;
920;SDS011;447;51.332;6.778;2023-02-20T14:45:15;15.83;;;9.57;;
920;SDS011;447;51.332;6.778;2023-02-20T14:47:52;14.00;;;9.67;;
920;SDS011;447;51.332;6.778;2023-02-20T14:50:33;18.10;;;10.57;;
920;SDS011;447;51.332;6.778;2023-02-20T14:53:12;14.27;;;9.50;;
920;SDS011;447;51.332;6.778;2023-02-20T14:55:40;19.10;;;11.20;;
920;SDS011;447;51.332;6.778;2023-02-20T14:58:15;17.40;;;10.90;;
920;SDS011;447;51.332;6.778;2023-02-20T15:00:46;15.30;;;10.17;;
920;SDS011;447;51.332;6.778;2023-02-20T15:03:23;18.47;;;10.10;;
920;SDS011;447;51.332;6.778;2023-02-20T15:06:03;13.90;;;9.67;;
920;SDS011;447;51.332;6.778;2023-02-20T15:08:31;18.23;;;10.50;;
920;SDS011;447;51.332;6.778;2023-02-20T15:11:09;19.90;;;12.10;;
920;SDS011;447;51.332;6.778;2023-02-20T15:13:40;20.87;;;11.27;;
920;SDS011;447;51.332;6.778;2023-02-20T15:18:47;20.73;;;10.73;;
920;SDS011;447;51.332;6.778;2023-02-20T15:21:29;20.87;;;11.67;;
920;SDS011;447;51.332;6.778;2023-02-20T15:24:10;18.93;;;10.30;;
920;SDS011;447;51.332;6.778;2023-02-20T15:26:36;17.63;;;10.43;;
920;SDS011;447;51.332;6.778;2023-02-20T15:34:30;16.13;;;11.10;;
920;SDS011;447;51.332;6.778;2023-02-20T15:37:04;19.43;;;11.83;;
920;SDS011;447;51.332;6.778;2023-02-20T15:39:50;19.43;;;11.53;;
920;SDS011;447;51.332;6.778;2023-02-20T15:42:17;17.80;;;11.03;;
920;SDS011;447;51.332;6.778;2023-02-20T15:44:49;16.47;;;11.10;;
920;SDS011;447;51.332;6.778;2023-02-20T15:47:17;18.17;;;11.37;;
920;SDS011;447;51.332;6.778;2023-02-20T15:49:43;19.30;;;11.37;;
920;SDS011;447;51.332;6.778;2023-02-20T15:52:13;20.63;;;11.57;;
920;SDS011;447;51.332;6.778;2023-02-20T15:54:45;18.87;;;12.10;;
920;SDS011;447;51.332;6.778;2023-02-20T15:57:16;16.97;;;11.43;;
920;SDS011;447;51.332;6.778;2023-02-20T15:59:46;18.47;;;11.90;;
920;SDS011;447;51.332;6.778;2023-02-20T16:02:14;15.63;;;10.67;;
920;SDS011;447;51.332;6.778;2023-02-20T16:04:44;22.13;;;12.67;;
920;SDS011;447;51.332;6.778;2023-02-20T16:07:14;17.17;;;12.27;;
920;SDS011;447;51.332;6.778;2023-02-20T16:09:41;19.80;;;13.00;;
920;SDS011;447;51.332;6.778;2023-02-20T16:12:12;17.90;;;11.87;;
920;SDS011;447;51.332;6.778;2023-02-20T16:14:45;16.07;;;10.97;;
920;SDS011;447;51.332;6.778;2023-02-20T16:17:21;17.43;;;11.87;;
920;SDS011;447;51.332;6.778;2023-02-20T16:19:54;17.20;;;11.50;;
920;SDS011;447;51.332;6.778;2023-02-20T16:22:25;20.73;;;11.70;;
920;SDS011;447;51.332;6.778;2023-02-20T16:24:56;14.83;;;9.77;;
920;SDS011;447;51.332;6.778;2023-02-20T16:27:25;17.97;;;11.20;;
920;SDS011;447;51.332;6.778;2023-02-20T16:29:52;20.70;;;10.63;;
920;SDS011;447;51.332;6.778;2023-02-20T16:32:23;16.40;;;11.50;;
920;SDS011;447;51.332;6.778;2023-02-20T16:34:54;15.57;;;10.80;;
920;SDS011;447;51.332;6.778;2023-02-20T16:37:24;14.20;;;10.70;;
920;SDS011;447;51.332;6.778;2023-02-20T16:39:53;16.30;;;11.20;;
920;SDS011;447;51.332;6.778;2023-02-20T16:42:29;13.93;;;10.57;;
920;SDS011;447;51.332;6.778;2023-02-20T16:44:58;16.73;;;10.33;;
920;SDS011;447;51.332;6.778;2023-02-20T16:47:27;17.23;;;9.80;;
920;SDS011;447;51.332;6.778;2023-02-20T16:49:55;13.90;;;9.90;;
920;SDS011;447;51.332;6.778;2023-02-20T16:54:58;15.30;;;11.13;;
920;SDS011;447;51.332;6.778;2023-02-20T16:57:27;15.40;;;9.80;;
920;SDS011;447;51.332;6.778;2023-02-20T16:59:55;17.40;;;10.33;;
920;SDS011;447;51.332;6.778;2023-02-20T17:02:28;16.63;;;10.03;;
920;SDS011;447;51.332;6.778;2023-02-20T17:04:58;12.67;;;9.07;;
920;SDS011;447;51.332;6.778;2023-02-20T17:07:26;14.97;;;10.00;;
920;SDS011;447;51.332;6.778;2023-02-20T17:09:54;14.97;;;9.97;;
920;SDS011;447;51.332;6.778;2023-02-20T17:12:23;16.17;;;9.77;;
920;SDS011;447;51.332;6.778;2023-02-20T17:14:52;14.00;;;9.10;;
920;SDS011;447;51.332;6.778;2023-02-20T17:17:23;13.90;;;9.97;;
920;SDS011;447;51.332;6.778;2023-02-20T17:19:52;14.93;;;10.07;;
920;SDS011;447;51.332;6.778;2023-02-20T17:22:21;13.87;;;8.53;;
920;SDS011;447;51.332;6.778;2023-02-20T17:24:50;12.30;;;10.07;;
920;SDS011;447;51.332;6.778;2023-02-20T17:27:22;18.37;;;9.40;;
920;SDS011;447;51.332;6.778;2023-02-20T17:29:50;14.40;;;9.37;;
920;SDS011;447;51.332;6.778;2023-02-20T17:32:19;14.80;;;9.87;;
920;SDS011;447;51.332;6.778;2023-02-20T17:34:47;10.47;;;8.40;;
920;SDS011;447;51.332;6.778;2023-02-20T17:37:13;15.37;;;9.80;;
920;SDS011;447;51.332;6.778;2023-02-20T17:39:41;13.27;;;9.13;;
920;SDS011;447;51.332;6.778;2023-02-20T17:42:10;16.10;;;10.10;;
920;SDS011;447;51.332;6.778;2023-02-20T17:44:38;14.33;;;9.33;;
920;SDS011;447;51.332;6.778;2023-02-20T17:47:07;16.57;;;10.60;;
920;SDS011;447;51.332;6.778;2023-02-20T17:49:37;15.17;;;9.87;;
920;SDS011;447;51.332;6.778;2023-02-20T17:52:03;15.40;;;9.90;;
920;SDS011;447;51.332;6.778;2023-02-20T17:54:29;15.57;;;10.13;;
920;SDS011;447;51.332;6.778;2023-02-20T17:56:58;16.30;;;10.40;;
920;SDS011;447;51.332;6.778;2023-02-20T17:59:25;13.93;;;9.27;;
920;SDS011;447;51.332;6.778;2023-02-20T18:01:54;13.63;;;10.30;;
920;SDS011;447;51.332;6.778;2023-02-20T18:04:22;15.17;;;9.67;;
920;SDS011;447;51.332;6.778;2023-02-20T18:06:52;16.63;;;9.27;;
920;SDS011;447;51.332;6.778;2023-02-20T18:09:18;15.90;;;10.97;;
920;SDS011;447;51.332;6.778;2023-02-20T18:11:47;13.57;;;9.73;;
920;SDS011;447;51.332;6.778;2023-02-20T18:14:18;18.83;;;9.90;;
920;SDS011;447;51.332;6.778;2023-02-20T18:16:44;17.70;;;10.63;;
920;SDS011;447;51.332;6.778;2023-02-20T18:19:12;16.37;;;9.70;;
920;SDS011;447;51.332;6.778;2023-02-20T18:21:39;15.20;;;10.73;;
920;SDS011;447;51.332;6.778;2023-02-20T18:24:11;16.67;;;12.13;;
920;SDS011;447;51.332;6.778;2023-02-20T18:26:37;15.90;;;10.83;;
920;SDS011;447;51.332;6.778;2023-02-20T18:29:06;17.37;;;11.20;;
920;SDS011;447;51.332;6.778;2023-02-20T18:31:32;13.20;;;10.50;;
920;SDS011;447;51.332;6.778;2023-02-20T18:33:59;15.47;;;11.20;;
920;SDS011;447;51.332;6.778;2023-02-20T18:36:28;16.07;;;10.83;;